sensor_id;sensor_type;location;lat;lon;timestamp;P1;durP1;ratioP1;P2;durP2;ratioP2
19519;SDS011;9904;52.246;20.898;2022-11-20T00:01:17;76.13;;;28.03;;
19519;SDS011;9904;52.246;20.898;2022-11-20T00:03:46;73.40;;;25.83;;
19519;SDS011;9904;52.246;20.898;2022-11-20T00:06:13;67.83;;;26.47;;
19519;SDS011;9904;52.246;20.898;2022-11-20T00:08:42;74.80;;;28.73;;
19519;SDS011;9904;52.246;20.898;2022-11-20T00:11:09;70.27;;;26.00;;
19519;SDS011;9904;52.246;20.898;2022-11-20T00:13:41;68.63;;;25.77;;
19519;SDS011;9904;52.246;20.898;2022-11-20T00:16:12;65.10;;;26.50;;
19519;SDS011;9904;52.246;20.898;2022-11-20T00:18:40;72.20;;;26.33;;
19519;SDS011;9904;52.246;20.898;2022-11-20T00:21:15;68.57;;;25.97;;
19519;SDS011;9904;52.246;20.898;2022-11-20T00:23:44;70.77;;;25.67;;
19519;SDS011;9904;52.246;20.898;2022-11-20T00:26:11;67.53;;;26.60;;
19519;SDS011;9904;52.246;20.898;2022-11-20T00:28:40;71.10;;;27.00;;
19519;SDS011;9904;52.246;20.898;2022-11-20T00:31:08;70.50;;;26.73;;
19519;SDS011;9904;52.246;20.898;2022-11-20T00:33:36;79.10;;;27.20;;
19519;SDS011;9904;52.246;20.898;2022-11-20T00:36:04;75.33;;;26.50;;
19519;SDS011;9904;52.246;20.898;2022-11-20T00:38:32;66.40;;;25.53;;
19519;SDS011;9904;52.246;20.898;2022-11-20T00:40:59;69.43;;;25.90;;
19519;SDS011;9904;52.246;20.898;2022-11-20T00:43:27;68.63;;;26.50;;
19519;SDS011;9904;52.246;20.898;2022-11-20T00:45:57;67.77;;;26.67;;
19519;SDS011;9904;52.246;20.898;2022-11-20T00:48:28;67.00;;;25.87;;
19519;SDS011;9904;52.246;20.898;2022-11-20T00:50:54;67.57;;;25.90;;
19519;SDS011;9904;52.246;20.898;2022-11-20T00:53:21;76.87;;;26.73;;
19519;SDS011;9904;52.246;20.898;2022-11-20T00:58:24;71.10;;;27.47;;
19519;SDS011;9904;52.246;20.898;2022-11-20T01:00:59;71.17;;;25.73;;
19519;SDS011;9904;52.246;20.898;2022-11-20T01:03:33;65.20;;;24.97;;
19519;SDS011;9904;52.246;20.898;2022-11-20T01:06:01;67.00;;;25.03;;
19519;SDS011;9904;52.246;20.898;2022-11-20T01:08:30;62.77;;;24.47;;
19519;SDS011;9904;52.246;20.898;2022-11-20T01:11:05;66.53;;;25.93;;
19519;SDS011;9904;52.246;20.898;2022-11-20T01:13:33;64.07;;;24.57;;
19519;SDS011;9904;52.246;20.898;2022-11-20T01:16:10;75.10;;;26.63;;
19519;SDS011;9904;52.246;20.898;2022-11-20T01:18:39;62.93;;;25.27;;
19519;SDS011;9904;52.246;20.898;2022-11-20T01:21:08;63.87;;;25.43;;
19519;SDS011;9904;52.246;20.898;2022-11-20T01:23:37;57.37;;;24.30;;
19519;SDS011;9904;52.246;20.898;2022-11-20T01:26:09;69.73;;;25.93;;
19519;SDS011;9904;52.246;20.898;2022-11-20T01:28:37;69.27;;;26.50;;
19519;SDS011;9904;52.246;20.898;2022-11-20T01:31:26;65.03;;;25.00;;
19519;SDS011;9904;52.246;20.898;2022-11-20T01:33:53;68.47;;;25.03;;
19519;SDS011;9904;52.246;20.898;2022-11-20T01:36:21;61.97;;;23.90;;
19519;SDS011;9904;52.246;20.898;2022-11-20T01:38:56;63.27;;;25.57;;
19519;SDS011;9904;52.246;20.898;2022-11-20T01:41:25;72.57;;;25.63;;
19519;SDS011;9904;52.246;20.898;2022-11-20T01:44:11;66.33;;;24.17;;
19519;SDS011;9904;52.246;20.898;2022-11-20T01:46:42;60.87;;;22.97;;
19519;SDS011;9904;52.246;20.898;2022-11-20T01:49:20;56.07;;;24.13;;
19519;SDS011;9904;52.246;20.898;2022-11-20T01:51:51;71.83;;;24.73;;
19519;SDS011;9904;52.246;20.898;2022-11-20T01:54:21;69.73;;;25.30;;
19519;SDS011;9904;52.246;20.898;2022-11-20T01:56:51;63.53;;;25.00;;
19519;SDS011;9904;52.246;20.898;2022-11-20T01:59:20;62.57;;;24.33;;
19519;SDS011;9904;52.246;20.898;2022-11-20T02:01:49;68.70;;;25.53;;
19519;SDS011;9904;52.246;20.898;2022-11-20T02:04:15;64.07;;;25.10;;
19519;SDS011;9904;52.246;20.898;2022-11-20T02:06:46;68.00;;;24.40;;
19519;SDS011;9904;52.246;20.898;2022-11-20T02:09:15;62.47;;;24.53;;
19519;SDS011;9904;52.246;20.898;2022-11-20T02:11:42;65.03;;;24.40;;
19519;SDS011;9904;52.246;20.898;2022-11-20T02:14:08;59.63;;;24.00;;
19519;SDS011;9904;52.246;20.898;2022-11-20T02:16:38;67.77;;;25.10;;
19519;SDS011;9904;52.246;20.898;2022-11-20T02:19:07;54.23;;;22.63;;
19519;SDS011;9904;52.246;20.898;2022-11-20T02:21:43;69.10;;;24.90;;
19519;SDS011;9904;52.246;20.898;2022-11-20T02:24:28;63.30;;;24.93;;
19519;SDS011;9904;52.246;20.898;2022-11-20T02:26:56;66.20;;;23.40;;
19519;SDS011;9904;52.246;20.898;2022-11-20T02:32:21;65.57;;;25.10;;
19519;SDS011;9904;52.246;20.898;2022-11-20T02:34:49;68.93;;;25.43;;
19519;SDS011;9904;52.246;20.898;2022-11-20T02:37:16;65.47;;;24.87;;
19519;SDS011;9904;52.246;20.898;2022-11-20T02:39:43;64.73;;;25.27;;
19519;SDS011;9904;52.246;20.898;2022-11-20T02:42:11;63.67;;;25.97;;
19519;SDS011;9904;52.246;20.898;2022-11-20T02:44:37;64.13;;;24.53;;
19519;SDS011;9904;52.246;20.898;2022-11-20T02:47:04;64.73;;;24.53;;
19519;SDS011;9904;52.246;20.898;2022-11-20T02:49:30;67.20;;;25.50;;
19519;SDS011;9904;52.246;20.898;2022-11-20T02:51:57;68.33;;;25.63;;
19519;SDS011;9904;52.246;20.898;2022-11-20T02:54:24;66.77;;;24.83;;
19519;SDS011;9904;52.246;20.898;2022-11-20T02:56:51;73.83;;;25.80;;
19519;SDS011;9904;52.246;20.898;2022-11-20T02:59:17;68.17;;;25.40;;
19519;SDS011;9904;52.246;20.898;2022-11-20T03:01:44;62.87;;;25.00;;
19519;SDS011;9904;52.246;20.898;2022-11-20T03:04:11;71.00;;;25.53;;
19519;SDS011;9904;52.246;20.898;2022-11-20T03:06:37;75.13;;;26.60;;
19519;SDS011;9904;52.246;20.898;2022-11-20T03:09:04;71.10;;;26.13;;
19519;SDS011;9904;52.246;20.898;2022-11-20T03:11:31;68.07;;;25.07;;
19519;SDS011;9904;52.246;20.898;2022-11-20T03:13:57;69.33;;;26.30;;
19519;SDS011;9904;52.246;20.898;2022-11-20T03:16:24;66.93;;;26.07;;
19519;SDS011;9904;52.246;20.898;2022-11-20T03:18:51;67.67;;;25.07;;
19519;SDS011;9904;52.246;20.898;2022-11-20T03:21:18;64.77;;;26.23;;
19519;SDS011;9904;52.246;20.898;2022-11-20T03:23:45;67.50;;;27.13;;
19519;SDS011;9904;52.246;20.898;2022-11-20T03:26:13;68.13;;;25.87;;
19519;SDS011;9904;52.246;20.898;2022-11-20T03:28:45;68.33;;;24.83;;
19519;SDS011;9904;52.246;20.898;2022-11-20T03:31:13;68.73;;;26.77;;
19519;SDS011;9904;52.246;20.898;2022-11-20T03:33:41;73.87;;;26.43;;
19519;SDS011;9904;52.246;20.898;2022-11-20T03:36:09;65.17;;;24.73;;
19519;SDS011;9904;52.246;20.898;2022-11-20T03:38:37;67.90;;;24.87;;
19519;SDS011;9904;52.246;20.898;2022-11-20T03:41:05;70.10;;;27.53;;
19519;SDS011;9904;52.246;20.898;2022-11-20T03:43:39;65.63;;;25.57;;
19519;SDS011;9904;52.246;20.898;2022-11-20T03:46:05;69.33;;;26.10;;
19519;SDS011;9904;52.246;20.898;2022-11-20T03:48:32;75.43;;;28.30;;
19519;SDS011;9904;52.246;20.898;2022-11-20T03:51:14;75.50;;;27.23;;
19519;SDS011;9904;52.246;20.898;2022-11-20T03:53:42;71.53;;;27.40;;
19519;SDS011;9904;52.246;20.898;2022-11-20T03:56:10;70.30;;;26.87;;
19519;SDS011;9904;52.246;20.898;2022-11-20T03:58:38;65.63;;;26.03;;
19519;SDS011;9904;52.246;20.898;2022-11-20T04:01:30;67.47;;;26.23;;
19519;SDS011;9904;52.246;20.898;2022-11-20T04:03:59;73.83;;;27.47;;
19519;SDS011;9904;52.246;20.898;2022-11-20T04:06:27;68.00;;;26.00;;
19519;SDS011;9904;52.246;20.898;2022-11-20T04:08:55;74.50;;;26.93;;
19519;SDS011;9904;52.246;20.898;2022-11-20T04:11:27;66.80;;;25.60;;
19519;SDS011;9904;52.246;20.898;2022-11-20T04:13:58;69.60;;;26.50;;
19519;SDS011;9904;52.246;20.898;2022-11-20T04:16:27;71.63;;;26.47;;
19519;SDS011;9904;52.246;20.898;2022-11-20T04:18:56;71.67;;;27.43;;
19519;SDS011;9904;52.246;20.898;2022-11-20T04:21:24;69.07;;;26.63;;
19519;SDS011;9904;52.246;20.898;2022-11-20T04:23:51;69.70;;;26.53;;
19519;SDS011;9904;52.246;20.898;2022-11-20T04:26:21;72.80;;;27.53;;
19519;SDS011;9904;52.246;20.898;2022-11-20T04:28:49;76.87;;;28.20;;
19519;SDS011;9904;52.246;20.898;2022-11-20T04:31:17;72.53;;;27.07;;
19519;SDS011;9904;52.246;20.898;2022-11-20T04:33:45;75.43;;;27.97;;
19519;SDS011;9904;52.246;20.898;2022-11-20T04:36:13;73.67;;;28.20;;
19519;SDS011;9904;52.246;20.898;2022-11-20T04:38:45;71.13;;;27.37;;
19519;SDS011;9904;52.246;20.898;2022-11-20T04:41:16;77.13;;;28.50;;
19519;SDS011;9904;52.246;20.898;2022-11-20T04:43:47;72.60;;;27.27;;
19519;SDS011;9904;52.246;20.898;2022-11-20T04:46:16;72.00;;;27.40;;
19519;SDS011;9904;52.246;20.898;2022-11-20T04:48:43;76.20;;;28.57;;
19519;SDS011;9904;52.246;20.898;2022-11-20T04:51:09;69.13;;;26.67;;
19519;SDS011;9904;52.246;20.898;2022-11-20T04:53:36;78.20;;;28.07;;
19519;SDS011;9904;52.246;20.898;2022-11-20T04:56:04;75.23;;;27.93;;
19519;SDS011;9904;52.246;20.898;2022-11-20T04:58:32;79.90;;;28.57;;
19519;SDS011;9904;52.246;20.898;2022-11-20T05:01:03;75.80;;;28.23;;
19519;SDS011;9904;52.246;20.898;2022-11-20T05:03:31;72.33;;;27.00;;
19519;SDS011;9904;52.246;20.898;2022-11-20T05:06:04;72.20;;;27.27;;
19519;SDS011;9904;52.246;20.898;2022-11-20T05:08:32;72.03;;;27.43;;
19519;SDS011;9904;52.246;20.898;2022-11-20T05:11:06;75.90;;;28.97;;
19519;SDS011;9904;52.246;20.898;2022-11-20T05:13:40;65.53;;;27.17;;
19519;SDS011;9904;52.246;20.898;2022-11-20T05:16:07;78.43;;;27.83;;
19519;SDS011;9904;52.246;20.898;2022-11-20T05:18:36;76.13;;;26.87;;
19519;SDS011;9904;52.246;20.898;2022-11-20T05:21:03;70.50;;;26.20;;
19519;SDS011;9904;52.246;20.898;2022-11-20T05:23:31;67.83;;;26.63;;
19519;SDS011;9904;52.246;20.898;2022-11-20T05:25:58;75.03;;;26.87;;
19519;SDS011;9904;52.246;20.898;2022-11-20T05:28:25;64.37;;;25.73;;
19519;SDS011;9904;52.246;20.898;2022-11-20T05:30:52;71.00;;;26.43;;
19519;SDS011;9904;52.246;20.898;2022-11-20T05:33:19;66.47;;;26.00;;
19519;SDS011;9904;52.246;20.898;2022-11-20T05:35:46;73.63;;;26.70;;
19519;SDS011;9904;52.246;20.898;2022-11-20T05:38:12;61.53;;;23.97;;
19519;SDS011;9904;52.246;20.898;2022-11-20T05:40:39;68.00;;;25.40;;
19519;SDS011;9904;52.246;20.898;2022-11-20T05:43:06;63.90;;;25.10;;
19519;SDS011;9904;52.246;20.898;2022-11-20T05:45:33;75.97;;;26.17;;
19519;SDS011;9904;52.246;20.898;2022-11-20T05:48:00;66.23;;;24.90;;
19519;SDS011;9904;52.246;20.898;2022-11-20T05:50:27;70.30;;;26.50;;
19519;SDS011;9904;52.246;20.898;2022-11-20T05:52:54;63.17;;;24.90;;
19519;SDS011;9904;52.246;20.898;2022-11-20T05:55:21;63.73;;;24.50;;
19519;SDS011;9904;52.246;20.898;2022-11-20T05:57:48;61.77;;;24.37;;
19519;SDS011;9904;52.246;20.898;2022-11-20T06:00:14;61.37;;;24.10;;
19519;SDS011;9904;52.246;20.898;2022-11-20T06:02:41;67.77;;;25.43;;
19519;SDS011;9904;52.246;20.898;2022-11-20T06:05:08;67.47;;;25.70;;
19519;SDS011;9904;52.246;20.898;2022-11-20T06:07:35;65.13;;;24.77;;
19519;SDS011;9904;52.246;20.898;2022-11-20T06:10:01;65.33;;;25.13;;
19519;SDS011;9904;52.246;20.898;2022-11-20T06:12:30;66.13;;;25.27;;
19519;SDS011;9904;52.246;20.898;2022-11-20T06:14:58;64.00;;;24.17;;
19519;SDS011;9904;52.246;20.898;2022-11-20T06:17:24;64.13;;;24.43;;
19519;SDS011;9904;52.246;20.898;2022-11-20T06:19:51;65.23;;;23.90;;
19519;SDS011;9904;52.246;20.898;2022-11-20T06:22:17;65.77;;;24.73;;
19519;SDS011;9904;52.246;20.898;2022-11-20T06:24:44;71.57;;;25.00;;
19519;SDS011;9904;52.246;20.898;2022-11-20T06:27:11;64.43;;;25.07;;
19519;SDS011;9904;52.246;20.898;2022-11-20T06:29:37;64.87;;;23.53;;
19519;SDS011;9904;52.246;20.898;2022-11-20T06:32:04;67.87;;;25.10;;
19519;SDS011;9904;52.246;20.898;2022-11-20T06:34:31;68.00;;;25.77;;
19519;SDS011;9904;52.246;20.898;2022-11-20T06:36:57;67.13;;;25.97;;
19519;SDS011;9904;52.246;20.898;2022-11-20T06:39:24;62.80;;;24.03;;
19519;SDS011;9904;52.246;20.898;2022-11-20T06:41:51;64.33;;;23.87;;
19519;SDS011;9904;52.246;20.898;2022-11-20T06:44:24;64.13;;;24.77;;
19519;SDS011;9904;52.246;20.898;2022-11-20T06:46:50;63.50;;;24.33;;
19519;SDS011;9904;52.246;20.898;2022-11-20T06:49:17;62.87;;;24.83;;
19519;SDS011;9904;52.246;20.898;2022-11-20T06:51:44;67.60;;;24.50;;
19519;SDS011;9904;52.246;20.898;2022-11-20T06:54:11;71.57;;;24.47;;
19519;SDS011;9904;52.246;20.898;2022-11-20T06:56:37;66.90;;;24.43;;
19519;SDS011;9904;52.246;20.898;2022-11-20T06:59:04;64.33;;;24.77;;
19519;SDS011;9904;52.246;20.898;2022-11-20T07:01:32;64.13;;;24.60;;
19519;SDS011;9904;52.246;20.898;2022-11-20T07:03:59;61.37;;;24.63;;
19519;SDS011;9904;52.246;20.898;2022-11-20T07:06:25;61.67;;;23.10;;
19519;SDS011;9904;52.246;20.898;2022-11-20T07:08:52;65.83;;;24.20;;
19519;SDS011;9904;52.246;20.898;2022-11-20T07:11:19;62.37;;;24.80;;
19519;SDS011;9904;52.246;20.898;2022-11-20T07:13:45;60.00;;;24.37;;
19519;SDS011;9904;52.246;20.898;2022-11-20T07:16:12;61.77;;;24.37;;
19519;SDS011;9904;52.246;20.898;2022-11-20T07:18:38;67.40;;;26.93;;
19519;SDS011;9904;52.246;20.898;2022-11-20T07:21:06;64.43;;;24.90;;
19519;SDS011;9904;52.246;20.898;2022-11-20T07:23:34;64.47;;;24.57;;
19519;SDS011;9904;52.246;20.898;2022-11-20T07:26:04;68.83;;;26.40;;
19519;SDS011;9904;52.246;20.898;2022-11-20T07:28:35;63.40;;;24.50;;
19519;SDS011;9904;52.246;20.898;2022-11-20T07:31:02;67.83;;;25.23;;
19519;SDS011;9904;52.246;20.898;2022-11-20T07:33:29;67.67;;;25.37;;
19519;SDS011;9904;52.246;20.898;2022-11-20T07:35:55;64.60;;;25.50;;
19519;SDS011;9904;52.246;20.898;2022-11-20T07:38:22;67.87;;;25.17;;
19519;SDS011;9904;52.246;20.898;2022-11-20T07:40:52;70.53;;;25.60;;
19519;SDS011;9904;52.246;20.898;2022-11-20T07:43:19;63.13;;;25.53;;
19519;SDS011;9904;52.246;20.898;2022-11-20T07:45:46;62.03;;;23.57;;
19519;SDS011;9904;52.246;20.898;2022-11-20T07:48:12;66.83;;;26.67;;
19519;SDS011;9904;52.246;20.898;2022-11-20T07:50:39;67.47;;;25.60;;
19519;SDS011;9904;52.246;20.898;2022-11-20T07:53:06;60.83;;;25.00;;
19519;SDS011;9904;52.246;20.898;2022-11-20T07:55:36;75.93;;;26.97;;
19519;SDS011;9904;52.246;20.898;2022-11-20T07:58:03;73.07;;;26.13;;
19519;SDS011;9904;52.246;20.898;2022-11-20T08:00:29;71.70;;;26.57;;
19519;SDS011;9904;52.246;20.898;2022-11-20T08:02:56;68.37;;;26.47;;
19519;SDS011;9904;52.246;20.898;2022-11-20T08:05:23;71.30;;;25.73;;
19519;SDS011;9904;52.246;20.898;2022-11-20T08:07:50;62.13;;;25.33;;
19519;SDS011;9904;52.246;20.898;2022-11-20T08:10:16;67.07;;;25.53;;
19519;SDS011;9904;52.246;20.898;2022-11-20T08:12:43;66.60;;;25.27;;
19519;SDS011;9904;52.246;20.898;2022-11-20T08:15:32;69.20;;;26.17;;
19519;SDS011;9904;52.246;20.898;2022-11-20T08:18:03;63.53;;;25.67;;
19519;SDS011;9904;52.246;20.898;2022-11-20T08:20:54;57.47;;;23.73;;
19519;SDS011;9904;52.246;20.898;2022-11-20T08:23:22;54.30;;;22.77;;
19519;SDS011;9904;52.246;20.898;2022-11-20T08:26:07;62.77;;;22.67;;
19519;SDS011;9904;52.246;20.898;2022-11-20T08:28:34;50.03;;;23.27;;
19519;SDS011;9904;52.246;20.898;2022-11-20T08:31:06;56.87;;;24.93;;
19519;SDS011;9904;52.246;20.898;2022-11-20T08:33:32;53.17;;;24.17;;
19519;SDS011;9904;52.246;20.898;2022-11-20T08:36:00;50.27;;;24.77;;
19519;SDS011;9904;52.246;20.898;2022-11-20T08:38:30;51.90;;;25.23;;
19519;SDS011;9904;52.246;20.898;2022-11-20T08:40:57;54.93;;;25.30;;
19519;SDS011;9904;52.246;20.898;2022-11-20T08:43:44;59.97;;;25.83;;
19519;SDS011;9904;52.246;20.898;2022-11-20T08:46:10;50.07;;;25.13;;
19519;SDS011;9904;52.246;20.898;2022-11-20T08:48:37;56.63;;;25.70;;
19519;SDS011;9904;52.246;20.898;2022-11-20T08:51:04;54.07;;;24.90;;
19519;SDS011;9904;52.246;20.898;2022-11-20T08:53:30;54.10;;;25.03;;
19519;SDS011;9904;52.246;20.898;2022-11-20T08:55:57;53.70;;;25.03;;
19519;SDS011;9904;52.246;20.898;2022-11-20T08:58:24;55.93;;;25.13;;
19519;SDS011;9904;52.246;20.898;2022-11-20T09:00:51;62.00;;;25.37;;
19519;SDS011;9904;52.246;20.898;2022-11-20T09:03:18;50.20;;;24.30;;
19519;SDS011;9904;52.246;20.898;2022-11-20T09:05:45;63.70;;;26.67;;
19519;SDS011;9904;52.246;20.898;2022-11-20T09:08:11;54.50;;;26.50;;
19519;SDS011;9904;52.246;20.898;2022-11-20T09:10:38;57.37;;;27.40;;
19519;SDS011;9904;52.246;20.898;2022-11-20T09:13:06;54.80;;;26.10;;
19519;SDS011;9904;52.246;20.898;2022-11-20T09:15:35;52.17;;;25.70;;
19519;SDS011;9904;52.246;20.898;2022-11-20T09:18:02;54.00;;;25.37;;
19519;SDS011;9904;52.246;20.898;2022-11-20T09:20:31;49.87;;;25.43;;
19519;SDS011;9904;52.246;20.898;2022-11-20T09:22:57;53.37;;;25.20;;
19519;SDS011;9904;52.246;20.898;2022-11-20T09:25:24;62.70;;;27.20;;
19519;SDS011;9904;52.246;20.898;2022-11-20T09:27:54;58.90;;;26.73;;
19519;SDS011;9904;52.246;20.898;2022-11-20T09:30:25;65.53;;;27.50;;
19519;SDS011;9904;52.246;20.898;2022-11-20T09:32:52;74.40;;;29.57;;
19519;SDS011;9904;52.246;20.898;2022-11-20T09:35:19;57.60;;;25.83;;
19519;SDS011;9904;52.246;20.898;2022-11-20T09:37:45;64.47;;;28.43;;
19519;SDS011;9904;52.246;20.898;2022-11-20T09:40:25;60.87;;;26.17;;
19519;SDS011;9904;52.246;20.898;2022-11-20T09:43:07;66.63;;;28.13;;
19519;SDS011;9904;52.246;20.898;2022-11-20T09:48:41;69.07;;;28.53;;
19519;SDS011;9904;52.246;20.898;2022-11-20T09:51:28;64.67;;;27.73;;
19519;SDS011;9904;52.246;20.898;2022-11-20T09:56:41;62.57;;;25.87;;
19519;SDS011;9904;52.246;20.898;2022-11-20T09:59:26;66.87;;;26.47;;
19519;SDS011;9904;52.246;20.898;2022-11-20T10:02:16;62.80;;;27.20;;
19519;SDS011;9904;52.246;20.898;2022-11-20T10:04:48;66.07;;;27.73;;
19519;SDS011;9904;52.246;20.898;2022-11-20T10:07:21;61.70;;;28.47;;
19519;SDS011;9904;52.246;20.898;2022-11-20T10:09:59;70.67;;;27.00;;
19519;SDS011;9904;52.246;20.898;2022-11-20T10:15:31;78.60;;;28.47;;
19519;SDS011;9904;52.246;20.898;2022-11-20T10:21:18;67.33;;;26.97;;
19519;SDS011;9904;52.246;20.898;2022-11-20T10:29:19;70.03;;;28.37;;
19519;SDS011;9904;52.246;20.898;2022-11-20T10:31:51;66.43;;;27.17;;
19519;SDS011;9904;52.246;20.898;2022-11-20T10:37:16;68.97;;;27.70;;
19519;SDS011;9904;52.246;20.898;2022-11-20T10:42:26;64.70;;;27.10;;
19519;SDS011;9904;52.246;20.898;2022-11-20T10:48:10;64.93;;;27.03;;
19519;SDS011;9904;52.246;20.898;2022-11-20T10:51:30;62.37;;;26.20;;
19519;SDS011;9904;52.246;20.898;2022-11-20T10:53:39;59.00;;;25.83;;
19519;SDS011;9904;52.246;20.898;2022-11-20T10:56:30;58.17;;;26.83;;
19519;SDS011;9904;52.246;20.898;2022-11-20T10:59:13;59.57;;;25.03;;
19519;SDS011;9904;52.246;20.898;2022-11-20T11:01:54;60.03;;;24.47;;
19519;SDS011;9904;52.246;20.898;2022-11-20T11:07:04;59.23;;;26.00;;
19519;SDS011;9904;52.246;20.898;2022-11-20T11:09:36;60.97;;;25.80;;
19519;SDS011;9904;52.246;20.898;2022-11-20T11:12:06;58.70;;;25.67;;
19519;SDS011;9904;52.246;20.898;2022-11-20T11:14:48;61.33;;;26.13;;
19519;SDS011;9904;52.246;20.898;2022-11-20T11:22:44;56.37;;;25.23;;
19519;SDS011;9904;52.246;20.898;2022-11-20T11:25:27;55.23;;;24.87;;
19519;SDS011;9904;52.246;20.898;2022-11-20T11:28:17;62.43;;;25.50;;
19519;SDS011;9904;52.246;20.898;2022-11-20T11:30:46;62.97;;;25.73;;
19519;SDS011;9904;52.246;20.898;2022-11-20T11:33:20;49.63;;;24.37;;
19519;SDS011;9904;52.246;20.898;2022-11-20T11:36:00;52.67;;;24.07;;
19519;SDS011;9904;52.246;20.898;2022-11-20T11:38:39;62.33;;;26.23;;
19519;SDS011;9904;52.246;20.898;2022-11-20T11:41:09;49.07;;;24.23;;
19519;SDS011;9904;52.246;20.898;2022-11-20T11:43:40;56.30;;;24.20;;
19519;SDS011;9904;52.246;20.898;2022-11-20T11:46:35;53.50;;;22.53;;
19519;SDS011;9904;52.246;20.898;2022-11-20T11:51:31;52.27;;;22.40;;
19519;SDS011;9904;52.246;20.898;2022-11-20T11:54:00;55.73;;;23.70;;
19519;SDS011;9904;52.246;20.898;2022-11-20T11:56:30;52.63;;;23.53;;
19519;SDS011;9904;52.246;20.898;2022-11-20T11:58:57;56.47;;;23.00;;
19519;SDS011;9904;52.246;20.898;2022-11-20T12:01:32;50.50;;;23.00;;
19519;SDS011;9904;52.246;20.898;2022-11-20T12:04:13;49.83;;;23.00;;
19519;SDS011;9904;52.246;20.898;2022-11-20T12:07:01;55.10;;;22.13;;
19519;SDS011;9904;52.246;20.898;2022-11-20T12:09:52;54.40;;;20.83;;
19519;SDS011;9904;52.246;20.898;2022-11-20T12:12:23;47.80;;;21.47;;
19519;SDS011;9904;52.246;20.898;2022-11-20T12:14:53;53.07;;;23.20;;
19519;SDS011;9904;52.246;20.898;2022-11-20T12:17:20;53.33;;;22.20;;
19519;SDS011;9904;52.246;20.898;2022-11-20T12:19:47;49.40;;;22.63;;
19519;SDS011;9904;52.246;20.898;2022-11-20T12:25:15;49.53;;;21.20;;
19519;SDS011;9904;52.246;20.898;2022-11-20T12:30:31;46.20;;;20.93;;
19519;SDS011;9904;52.246;20.898;2022-11-20T12:33:17;49.67;;;21.63;;
19519;SDS011;9904;52.246;20.898;2022-11-20T12:35:58;48.57;;;21.27;;
19519;SDS011;9904;52.246;20.898;2022-11-20T12:41:34;50.70;;;20.87;;
19519;SDS011;9904;52.246;20.898;2022-11-20T12:52:53;49.97;;;21.03;;
19519;SDS011;9904;52.246;20.898;2022-11-20T12:55:47;50.70;;;21.33;;
19519;SDS011;9904;52.246;20.898;2022-11-20T12:59:08;46.90;;;19.87;;
19519;SDS011;9904;52.246;20.898;2022-11-20T13:01:11;52.47;;;20.90;;
19519;SDS011;9904;52.246;20.898;2022-11-20T13:04:25;50.93;;;21.77;;
19519;SDS011;9904;52.246;20.898;2022-11-20T13:07:14;49.97;;;21.40;;
19519;SDS011;9904;52.246;20.898;2022-11-20T13:09:45;49.10;;;22.23;;
19519;SDS011;9904;52.246;20.898;2022-11-20T13:12:14;52.63;;;21.43;;
19519;SDS011;9904;52.246;20.898;2022-11-20T13:20:29;48.67;;;21.00;;
19519;SDS011;9904;52.246;20.898;2022-11-20T13:22:56;46.07;;;21.43;;
19519;SDS011;9904;52.246;20.898;2022-11-20T13:25:24;48.40;;;21.20;;
19519;SDS011;9904;52.246;20.898;2022-11-20T13:27:52;52.03;;;22.10;;
19519;SDS011;9904;52.246;20.898;2022-11-20T13:30:20;45.67;;;19.73;;
19519;SDS011;9904;52.246;20.898;2022-11-20T13:32:58;40.30;;;18.00;;
19519;SDS011;9904;52.246;20.898;2022-11-20T13:35:35;49.37;;;20.47;;
19519;SDS011;9904;52.246;20.898;2022-11-20T13:38:13;45.57;;;18.97;;
19519;SDS011;9904;52.246;20.898;2022-11-20T13:40:54;46.30;;;20.57;;
19519;SDS011;9904;52.246;20.898;2022-11-20T13:43:37;45.17;;;19.73;;
19519;SDS011;9904;52.246;20.898;2022-11-20T13:46:06;49.83;;;20.83;;
19519;SDS011;9904;52.246;20.898;2022-11-20T13:48:41;55.03;;;22.33;;
19519;SDS011;9904;52.246;20.898;2022-11-20T13:51:25;58.17;;;20.80;;
19519;SDS011;9904;52.246;20.898;2022-11-20T13:57:19;59.80;;;23.80;;
19519;SDS011;9904;52.246;20.898;2022-11-20T14:02:39;55.70;;;22.53;;
19519;SDS011;9904;52.246;20.898;2022-11-20T14:05:11;54.30;;;22.07;;
19519;SDS011;9904;52.246;20.898;2022-11-20T14:07:45;55.60;;;23.97;;
19519;SDS011;9904;52.246;20.898;2022-11-20T14:10:28;56.83;;;24.13;;
19519;SDS011;9904;52.246;20.898;2022-11-20T14:12:57;58.93;;;23.70;;
19519;SDS011;9904;52.246;20.898;2022-11-20T14:17:58;55.23;;;22.67;;
19519;SDS011;9904;52.246;20.898;2022-11-20T14:20:26;54.67;;;22.93;;
19519;SDS011;9904;52.246;20.898;2022-11-20T14:22:54;55.07;;;22.63;;
19519;SDS011;9904;52.246;20.898;2022-11-20T14:25:22;60.40;;;23.80;;
19519;SDS011;9904;52.246;20.898;2022-11-20T14:27:56;65.03;;;24.53;;
19519;SDS011;9904;52.246;20.898;2022-11-20T14:30:25;58.67;;;24.37;;
19519;SDS011;9904;52.246;20.898;2022-11-20T14:32:53;53.97;;;22.63;;
19519;SDS011;9904;52.246;20.898;2022-11-20T14:35:25;59.63;;;24.07;;
19519;SDS011;9904;52.246;20.898;2022-11-20T14:37:53;56.43;;;25.23;;
19519;SDS011;9904;52.246;20.898;2022-11-20T14:40:22;60.53;;;25.77;;
19519;SDS011;9904;52.246;20.898;2022-11-20T14:42:50;67.17;;;25.97;;
19519;SDS011;9904;52.246;20.898;2022-11-20T14:45:17;59.17;;;23.93;;
19519;SDS011;9904;52.246;20.898;2022-11-20T14:47:44;61.73;;;23.87;;
19519;SDS011;9904;52.246;20.898;2022-11-20T14:50:22;60.43;;;23.83;;
19519;SDS011;9904;52.246;20.898;2022-11-20T14:52:59;66.30;;;26.47;;
19519;SDS011;9904;52.246;20.898;2022-11-20T14:57:55;66.87;;;27.53;;
19519;SDS011;9904;52.246;20.898;2022-11-20T15:00:23;78.87;;;27.90;;
19519;SDS011;9904;52.246;20.898;2022-11-20T15:02:50;62.33;;;27.10;;
19519;SDS011;9904;52.246;20.898;2022-11-20T15:05:18;71.00;;;27.47;;
19519;SDS011;9904;52.246;20.898;2022-11-20T15:07:48;74.37;;;29.10;;
19519;SDS011;9904;52.246;20.898;2022-11-20T15:10:22;70.00;;;28.60;;
19519;SDS011;9904;52.246;20.898;2022-11-20T15:12:51;73.27;;;28.40;;
19519;SDS011;9904;52.246;20.898;2022-11-20T15:17:56;73.23;;;28.87;;
19519;SDS011;9904;52.246;20.898;2022-11-20T15:20:30;63.60;;;28.17;;
19519;SDS011;9904;52.246;20.898;2022-11-20T15:22:58;67.00;;;26.57;;
19519;SDS011;9904;52.246;20.898;2022-11-20T15:25:25;62.63;;;27.20;;
19519;SDS011;9904;52.246;20.898;2022-11-20T15:27:53;59.23;;;27.47;;
19519;SDS011;9904;52.246;20.898;2022-11-20T15:30:22;60.13;;;25.93;;
19519;SDS011;9904;52.246;20.898;2022-11-20T15:32:49;63.70;;;26.93;;
19519;SDS011;9904;52.246;20.898;2022-11-20T15:35:16;60.33;;;25.67;;
19519;SDS011;9904;52.246;20.898;2022-11-20T15:37:42;63.97;;;26.80;;
19519;SDS011;9904;52.246;20.898;2022-11-20T15:40:09;60.73;;;26.80;;
19519;SDS011;9904;52.246;20.898;2022-11-20T15:42:36;64.90;;;26.57;;
19519;SDS011;9904;52.246;20.898;2022-11-20T15:45:03;69.97;;;27.43;;
19519;SDS011;9904;52.246;20.898;2022-11-20T15:47:31;65.87;;;27.33;;
19519;SDS011;9904;52.246;20.898;2022-11-20T15:50:00;66.53;;;27.97;;
19519;SDS011;9904;52.246;20.898;2022-11-20T15:52:27;70.03;;;27.53;;
19519;SDS011;9904;52.246;20.898;2022-11-20T15:55:09;64.13;;;26.50;;
19519;SDS011;9904;52.246;20.898;2022-11-20T15:57:36;67.63;;;27.10;;
19519;SDS011;9904;52.246;20.898;2022-11-20T16:00:03;62.10;;;27.23;;